createdAt,value
2023-04-16T00:02:34.322Z,6.93
2023-04-16T00:05:22.523Z,6.96
2023-04-16T00:08:32.547Z,7.00
2023-04-16T00:11:16.372Z,7.02
2023-04-16T00:17:19.392Z,7.13
2023-04-16T00:20:22.562Z,7.16
2023-04-16T00:23:51.732Z,7.19
2023-04-16T00:26:51.846Z,7.21
2023-04-16T00:29:36.149Z,7.25
2023-04-16T00:32:40.897Z,7.28
2023-04-16T00:35:45.644Z,7.34
2023-04-16T00:38:56.188Z,7.41
2023-04-16T00:41:51.517Z,7.45
2023-04-16T00:44:41.251Z,7.50
2023-04-16T00:47:41.431Z,7.57
2023-04-16T00:50:50.461Z,7.65
2023-04-16T00:53:37.711Z,7.69
2023-04-16T00:56:36.825Z,7.74
2023-04-16T00:59:27.646Z,7.77
2023-04-16T01:02:38.284Z,7.82
2023-04-16T01:05:18.039Z,7.84
2023-04-16T01:08:22.423Z,7.88
2023-04-16T01:11:03.128Z,7.89
2023-04-16T01:14:25.307Z,7.91
2023-04-16T01:17:22.956Z,7.89
2023-04-16T01:20:53.740Z,7.87
2023-04-16T01:23:45.519Z,7.86
2023-04-16T01:26:25.169Z,7.83
2023-04-16T01:29:24.641Z,7.80
2023-04-16T01:32:34.920Z,7.77
2023-04-16T01:36:00.884Z,7.71
2023-04-16T01:38:42.124Z,7.62
2023-04-16T01:41:23.162Z,7.60
2023-04-16T01:44:11.559Z,7.58
2023-04-16T01:46:59.359Z,7.54
2023-04-16T01:49:51.998Z,7.52
2023-04-16T01:52:46.718Z,7.48
2023-04-16T01:55:31.014Z,7.46
2023-04-16T01:58:17.230Z,7.44
2023-04-16T02:00:57.932Z,7.42
2023-04-16T02:03:43.052Z,7.40
2023-04-16T02:06:43.402Z,7.34
2023-04-16T02:10:00.938Z,7.27
2023-04-16T02:13:02.852Z,7.26
2023-04-16T02:16:21.879Z,7.30
2023-04-16T02:19:04.373Z,7.34
2023-04-16T02:21:49.461Z,7.39
2023-04-16T02:24:38.538Z,7.42
2023-04-16T02:27:33.765Z,7.44
2023-04-16T02:30:23.096Z,7.46
2023-04-16T02:33:07.921Z,7.51
2023-04-16T02:36:14.508Z,7.54
2023-04-16T02:38:57.331Z,7.58
2023-04-16T02:41:39.894Z,7.63
2023-04-16T02:44:23.271Z,7.66
2023-04-16T02:47:09.103Z,7.67
2023-04-16T02:50:03.956Z,7.69
2023-04-16T02:52:47.381Z,7.75
2023-04-16T02:55:31.474Z,7.79
2023-04-16T02:58:27.449Z,7.80
2023-04-16T03:01:07.882Z,7.82
2023-04-16T03:03:53.301Z,7.85
2023-04-16T03:06:29.386Z,7.86
2023-04-16T03:09:21.839Z,7.85
2023-04-16T03:12:19.722Z,7.84
2023-04-16T03:15:04.176Z,7.84
2023-04-16T03:17:50.849Z,7.83
2023-04-16T03:20:47.207Z,7.77
2023-04-16T03:23:39.404Z,7.73
2023-04-16T03:26:32.617Z,7.73
2023-04-16T03:29:31.567Z,7.75
2023-04-16T03:32:11.437Z,7.77
2023-04-16T03:35:03.994Z,7.82
2023-04-16T03:37:42.426Z,7.87
2023-04-16T03:40:22.241Z,7.92
2023-04-16T03:43:06.051Z,7.94
2023-04-16T03:46:01.711Z,7.85
2023-04-16T03:52:19.620Z,7.77
2023-04-16T03:55:09.830Z,7.76
2023-04-16T03:58:21.104Z,7.77
2023-04-16T04:01:27.716Z,7.77
2023-04-16T04:04:17.818Z,7.80
2023-04-16T04:07:24.711Z,7.82
2023-04-16T04:10:07.101Z,7.86
2023-04-16T04:12:50.676Z,7.87
2023-04-16T04:15:54.178Z,7.87
2023-04-16T04:18:38.926Z,7.85
2023-04-16T04:21:20.723Z,7.83
2023-04-16T04:24:00.585Z,7.81
2023-04-16T04:26:38.186Z,7.79
2023-04-16T04:30:04.366Z,7.75
2023-04-16T04:33:03.263Z,7.74
2023-04-16T04:36:05.182Z,7.81
2023-04-16T04:39:03.352Z,7.86
2023-04-16T04:42:10.395Z,7.87
2023-04-16T04:45:03.962Z,7.84
2023-04-16T04:47:50.289Z,7.83
2023-04-16T04:50:45.544Z,7.85
2023-04-16T04:53:38.644Z,7.85
2023-04-16T04:56:52.831Z,7.79
2023-04-16T04:59:53.273Z,7.75
2023-04-16T05:02:39.249Z,7.74
2023-04-16T05:05:37.280Z,7.74
2023-04-16T05:08:20.668Z,7.73
2023-04-16T05:11:17.778Z,7.72
2023-04-16T05:14:00.694Z,7.71
2023-04-16T05:17:02.299Z,7.74
2023-04-16T05:20:19.988Z,7.77
2023-04-16T05:23:38.054Z,7.83
2023-04-16T05:26:20.374Z,7.93
2023-04-16T05:29:20.147Z,8.04
2023-04-16T05:32:19.983Z,8.11
2023-04-16T05:35:30.763Z,8.20
2023-04-16T05:38:30.785Z,8.36
2023-04-16T05:44:00.540Z,8.56
2023-04-16T05:47:11.127Z,8.69
2023-04-16T05:49:58.076Z,8.85
2023-04-16T05:52:56.066Z,9.05
2023-04-16T05:55:42.541Z,9.30
2023-04-16T05:58:22.968Z,9.44
2023-04-16T06:00:57.456Z,9.53
2023-04-16T06:03:31.107Z,9.64
2023-04-16T06:06:10.548Z,9.78
2023-04-16T06:08:49.924Z,9.81
2023-04-16T06:11:23.583Z,9.86
2023-04-16T06:13:56.709Z,9.92
2023-04-16T06:16:35.328Z,9.94
2023-04-16T06:19:13.918Z,9.99
2023-04-16T06:21:57.088Z,10.09
2023-04-16T06:24:39.351Z,10.15
2023-04-16T06:27:22.467Z,10.15
2023-04-16T06:30:01.065Z,10.18
2023-04-16T06:32:46.464Z,10.16
2023-04-16T06:35:24.180Z,10.17
2023-04-16T06:38:06.921Z,10.19
2023-04-16T06:41:04.151Z,10.19
2023-04-16T06:43:47.466Z,10.19
2023-04-16T06:46:34.976Z,10.21
2023-04-16T06:49:18.843Z,10.26
2023-04-16T06:51:58.382Z,10.27
2023-04-16T06:55:10.901Z,10.24
2023-04-16T06:58:09.690Z,10.32
2023-04-16T07:01:14.399Z,10.44
2023-04-16T07:04:57.411Z,10.62
2023-04-16T07:07:39.466Z,10.93
2023-04-16T07:10:25.686Z,11.23
2023-04-16T07:13:04.234Z,11.43
2023-04-16T07:16:27.693Z,11.49
2023-04-16T07:19:10.681Z,11.58
2023-04-16T07:21:45.288Z,11.70
2023-04-16T07:24:23.693Z,11.77
2023-04-16T07:27:08.867Z,11.86
2023-04-16T07:30:05.792Z,11.93
2023-04-16T07:32:58.942Z,11.92
2023-04-16T07:35:51.330Z,11.92
2023-04-16T07:38:49.312Z,11.90
2023-04-16T07:41:59.086Z,12.01
2023-04-16T07:44:34.884Z,12.03
2023-04-16T07:47:10.947Z,12.04
2023-04-16T07:50:31.671Z,12.03
2023-04-16T07:53:33.113Z,11.99
2023-04-16T07:56:18.502Z,11.97
2023-04-16T07:59:22.113Z,12.03
2023-04-16T08:02:24.357Z,12.14
2023-04-16T08:05:20.730Z,12.25
2023-04-16T08:11:32.036Z,12.62
2023-04-16T08:14:34.126Z,13.16
2023-04-16T08:17:38.233Z,13.64
2023-04-16T08:20:28.572Z,13.90
2023-04-16T08:23:09.032Z,14.02
2023-04-16T08:25:48.184Z,14.12
2023-04-16T08:28:25.556Z,14.12
2023-04-16T08:30:56.223Z,14.05
2023-04-16T08:33:27.466Z,13.95
2023-04-16T08:36:05.034Z,13.88
2023-04-16T08:39:02.444Z,13.84
2023-04-16T08:41:53.550Z,13.79
2023-04-16T08:44:53.066Z,13.75
2023-04-16T08:47:31.905Z,13.70
2023-04-16T08:50:19.755Z,13.52
2023-04-16T08:53:24.759Z,13.45
2023-04-16T08:56:09.028Z,13.46
2023-04-16T08:58:46.889Z,13.52
2023-04-16T09:01:45.358Z,13.57
2023-04-16T09:04:42.482Z,13.69
2023-04-16T09:07:31.898Z,13.96
2023-04-16T09:10:15.347Z,14.09
2023-04-16T09:13:09.812Z,14.16
2023-04-16T09:15:49.508Z,14.22
2023-04-16T09:18:34.542Z,14.35
2023-04-16T09:21:08.145Z,14.41
2023-04-16T09:23:41.658Z,14.34
2023-04-16T09:26:17.514Z,14.36
2023-04-16T09:29:02.853Z,14.41
2023-04-16T09:31:48.042Z,14.47
2023-04-16T09:35:00.203Z,14.40
2023-04-16T09:37:51.920Z,14.34
2023-04-16T09:40:31.421Z,14.34
2023-04-16T09:43:20.236Z,14.40
2023-04-16T09:46:14.250Z,14.75
2023-04-16T09:48:49.448Z,15.12
2023-04-16T09:51:28.634Z,15.36
2023-04-16T09:54:17.768Z,15.42
2023-04-16T09:57:01.998Z,15.40
2023-04-16T10:00:06.744Z,15.32
2023-04-16T10:03:44.220Z,15.23
2023-04-16T10:07:29.895Z,15.18
2023-04-16T10:10:31.274Z,15.34
2023-04-16T10:13:19.510Z,15.50
2023-04-16T10:16:37.905Z,15.62
2023-04-16T10:19:31.653Z,15.70
2023-04-16T10:22:41.347Z,15.88
2023-04-16T10:25:45.813Z,16.09
2023-04-16T10:28:47.117Z,16.26
2023-04-16T10:31:54.414Z,16.73
2023-04-16T10:34:50.921Z,17.47
2023-04-16T10:37:50.082Z,17.87
2023-04-16T10:40:42.724Z,18.01
2023-04-16T10:43:51.671Z,18.11
2023-04-16T10:46:57.693Z,17.96
2023-04-16T10:49:52.186Z,17.72
2023-04-16T10:52:34.021Z,17.55
2023-04-16T10:55:36.043Z,17.49
2023-04-16T10:58:39.245Z,17.34
2023-04-16T11:01:20.336Z,17.21
2023-04-16T11:04:25.380Z,17.06
2023-04-16T11:07:59.678Z,16.86
2023-04-16T11:10:57.364Z,16.82
2023-04-16T11:13:32.200Z,16.92
2023-04-16T11:16:12.544Z,16.96
2023-04-16T11:19:06.313Z,16.90
2023-04-16T11:25:46.287Z,16.75
2023-04-16T11:31:55.696Z,16.82
2023-04-16T11:34:30.779Z,16.80
2023-04-16T11:38:28.143Z,16.72
2023-04-16T11:46:27.969Z,16.34
2023-04-16T11:49:40.014Z,16.16
2023-04-16T11:52:14.663Z,16.21
2023-04-16T11:54:51.532Z,16.31
2023-04-16T11:57:39.070Z,16.36
2023-04-16T12:00:17.213Z,16.36
2023-04-16T12:03:06.462Z,16.35
2023-04-16T12:06:19.875Z,16.29
2023-04-16T12:09:37.896Z,16.16
2023-04-16T12:12:45.217Z,16.10
2023-04-16T12:15:29.728Z,16.10
2023-04-16T12:18:23.377Z,16.04
2023-04-16T12:24:29.264Z,16.05
2023-04-16T12:27:31.140Z,16.20
2023-04-16T12:30:29.991Z,16.24
2023-04-16T12:33:33.977Z,16.21
2023-04-16T12:36:29.028Z,16.10
2023-04-16T12:39:29.309Z,16.10
2023-04-16T12:42:22.908Z,16.14
2023-04-16T12:45:12.373Z,16.19
2023-04-16T12:48:01.171Z,16.25
2023-04-16T12:50:46.625Z,16.31
2023-04-16T12:56:50.737Z,16.43
2023-04-16T13:00:11.351Z,16.53
2023-04-16T13:03:05.237Z,16.63
2023-04-16T13:06:23.496Z,16.70
2023-04-16T13:09:33.391Z,16.67
2023-04-16T13:12:31.782Z,16.64
2023-04-16T13:15:45.958Z,16.53
2023-04-16T13:18:35.514Z,16.53
2023-04-16T13:21:30.978Z,16.59
2023-04-16T13:24:13.261Z,16.60
2023-04-16T13:27:16.718Z,16.51
2023-04-16T13:33:38.009Z,16.44
2023-04-16T13:36:19.850Z,16.48
2023-04-16T13:39:24.336Z,16.53
2023-04-16T13:45:08.519Z,16.56
2023-04-16T13:48:10.928Z,16.65
2023-04-16T13:50:46.339Z,16.67
2023-04-16T13:53:51.701Z,16.70
2023-04-16T13:56:31.507Z,16.74
2023-04-16T13:59:47.409Z,16.75
2023-04-16T14:03:33.989Z,16.80
2023-04-16T14:06:26.585Z,16.89
2023-04-16T14:09:34.436Z,17.01
2023-04-16T14:12:33.692Z,16.99
2023-04-16T14:15:30.264Z,16.99
2023-04-16T14:18:14.236Z,17.07
2023-04-16T14:21:03.486Z,17.11
2023-04-16T14:24:00.249Z,17.07
2023-04-16T14:26:55.060Z,16.99
2023-04-16T14:31:00.141Z,16.95
2023-04-16T14:34:11.233Z,16.95
2023-04-16T14:37:15.283Z,16.89
2023-04-16T14:40:44.713Z,16.82
2023-04-16T14:43:43.317Z,16.75
2023-04-16T14:46:48.224Z,16.65
2023-04-16T14:49:51.879Z,16.60
2023-04-16T14:53:08.624Z,16.58
2023-04-16T14:56:16.482Z,16.57
2023-04-16T14:59:38.876Z,16.49
2023-04-16T15:06:13.853Z,16.39
2023-04-16T15:09:10.608Z,16.30
2023-04-16T15:12:19.137Z,16.22
2023-04-16T15:15:24.389Z,16.04
2023-04-16T15:18:23.134Z,15.91
2023-04-16T15:21:13.564Z,15.87
2023-04-16T15:25:24.618Z,15.82
2023-04-16T15:28:28.219Z,15.76
2023-04-16T15:31:14.707Z,15.77
2023-04-16T15:34:49.663Z,15.80
2023-04-16T15:47:59.675Z,15.91
2023-04-16T15:52:26.158Z,16.03
2023-04-16T15:55:30.857Z,15.79
2023-04-16T15:58:19.842Z,15.63
2023-04-16T16:01:02.837Z,15.56
2023-04-16T16:03:50.884Z,15.46
2023-04-16T16:06:33.010Z,15.34
2023-04-16T16:09:30.546Z,15.25
2023-04-16T16:12:09.176Z,15.16
2023-04-16T16:15:12.468Z,15.06
2023-04-16T16:17:48.211Z,14.96
2023-04-16T16:20:36.428Z,14.89
2023-04-16T16:23:07.778Z,14.88
2023-04-16T16:26:07.179Z,14.76
2023-04-16T16:28:49.280Z,14.58
2023-04-16T16:31:42.701Z,14.48
2023-04-16T16:34:21.300Z,14.42
2023-04-16T16:37:15.986Z,14.39
2023-04-16T16:39:52.831Z,14.38
2023-04-16T16:43:07.771Z,14.29
2023-04-16T16:45:47.153Z,14.18
2023-04-16T16:48:18.307Z,14.16
2023-04-16T16:50:49.426Z,14.13
2023-04-16T16:53:22.827Z,14.08
2023-04-16T16:56:11.964Z,14.02
2023-04-16T16:58:48.526Z,13.97
2023-04-16T17:01:32.721Z,13.90
2023-04-16T17:04:41.964Z,13.85
2023-04-16T17:10:29.154Z,13.69
2023-04-16T17:13:44.348Z,13.59
2023-04-16T17:19:56.358Z,13.48
2023-04-16T17:23:00.891Z,13.39
2023-04-16T17:30:17.860Z,13.25
2023-04-16T17:33:45.276Z,13.21
2023-04-16T17:36:52.196Z,13.13
2023-04-16T17:39:44.083Z,13.10
2023-04-16T17:42:53.740Z,13.04
2023-04-16T17:46:13.923Z,12.96
2023-04-16T17:49:13.506Z,12.86
2023-04-16T17:52:06.577Z,12.82
2023-04-16T17:54:56.026Z,12.78
2023-04-16T17:57:41.200Z,12.75
2023-04-16T18:00:43.114Z,12.71
2023-04-16T18:03:28.745Z,12.63
2023-04-16T18:06:10.492Z,12.58
2023-04-16T18:09:18.727Z,12.54
2023-04-16T18:12:09.922Z,12.47
2023-04-16T18:15:14.165Z,12.42
2023-04-16T18:18:17.694Z,12.34
2023-04-16T18:21:18.159Z,12.26
2023-04-16T18:24:18.223Z,12.21
2023-04-16T18:27:12.674Z,12.15
2023-04-16T18:30:40.492Z,12.11
2023-04-16T18:36:33.426Z,11.90
2023-04-16T18:39:32.292Z,11.86
2023-04-16T18:42:23.216Z,11.80
2023-04-16T18:45:50.989Z,11.74
2023-04-16T18:49:07.829Z,11.63
2023-04-16T18:52:02.250Z,11.56
2023-04-16T18:54:45.121Z,11.52
2023-04-16T19:03:57.484Z,11.37
2023-04-16T19:07:04.670Z,11.33
2023-04-16T19:09:48.798Z,11.33
2023-04-16T19:12:32.049Z,11.34
2023-04-16T19:15:22.003Z,11.33
2023-04-16T19:18:29.396Z,11.29
2023-04-16T19:22:09.731Z,11.24
2023-04-16T19:25:24.435Z,11.14
2023-04-16T19:28:19.862Z,11.07
2023-04-16T19:31:18.801Z,11.02
2023-04-16T19:37:32.554Z,10.91
2023-04-16T19:40:49.942Z,10.87
2023-04-16T19:43:49.769Z,10.81
2023-04-16T19:47:04.300Z,10.77
2023-04-16T19:49:54.679Z,10.69
2023-04-16T19:52:47.255Z,10.64
2023-04-16T19:56:01.169Z,10.57
2023-04-16T19:59:01.990Z,10.49
2023-04-16T20:01:52.868Z,10.44
2023-04-16T20:04:51.898Z,10.38
2023-04-16T20:14:19.432Z,10.21
2023-04-16T20:17:24.207Z,10.18
2023-04-16T20:20:20.737Z,10.17
2023-04-16T20:23:11.844Z,10.17
2023-04-16T20:25:49.951Z,10.18
2023-04-16T20:28:43.319Z,10.11
2023-04-16T20:31:23.130Z,10.06
2023-04-16T20:34:04.340Z,10.03
2023-04-16T20:36:47.448Z,9.99
2023-04-16T20:39:44.923Z,9.92
2023-04-16T20:46:42.184Z,9.75
2023-04-16T20:49:53.219Z,9.71
2023-04-16T20:53:30.689Z,9.66
2023-04-16T21:00:03.523Z,9.58
2023-04-16T21:03:23.943Z,9.56
2023-04-16T21:06:07.518Z,9.53
2023-04-16T21:12:34.126Z,9.46
2023-04-16T21:15:24.712Z,9.45
2023-04-16T21:18:47.122Z,9.44
2023-04-16T21:22:33.754Z,9.37
2023-04-16T21:25:44.090Z,9.36
2023-04-16T21:28:42.946Z,9.35
2023-04-16T21:31:43.720Z,9.34
2023-04-16T21:35:15.583Z,9.33
2023-04-16T21:38:20.315Z,9.28
2023-04-16T21:41:14.839Z,9.23
2023-04-16T21:44:02.747Z,9.19
2023-04-16T21:47:27.868Z,9.14
2023-04-16T21:50:31.132Z,9.08
2023-04-16T21:53:35.658Z,9.02
2023-04-16T21:57:01.597Z,9.00
2023-04-16T22:00:34.965Z,8.95
2023-04-16T22:03:51.433Z,8.92
2023-04-16T22:07:06.726Z,8.88
2023-04-16T22:10:46.897Z,8.83
2023-04-16T22:13:52.407Z,8.77
2023-04-16T22:16:38.103Z,8.74
2023-04-16T22:19:42.326Z,8.71
2023-04-16T22:23:11.369Z,8.66
2023-04-16T22:26:27.679Z,8.57
2023-04-16T22:29:35.488Z,8.55
2023-04-16T22:32:17.512Z,8.55
2023-04-16T22:35:06.389Z,8.54
2023-04-16T22:38:06.120Z,8.51
2023-04-16T22:41:38.477Z,8.47
2023-04-16T22:45:09.645Z,8.40
2023-04-16T22:48:27.478Z,8.34
2023-04-16T22:51:35.118Z,8.31
2023-04-16T22:54:48.284Z,8.27
2023-04-16T22:58:14.469Z,8.24
2023-04-16T23:05:19.500Z,8.18
2023-04-16T23:08:43.173Z,8.16
2023-04-16T23:11:58.779Z,8.14
2023-04-16T23:15:17.135Z,8.10
2023-04-16T23:18:22.442Z,8.08
2023-04-16T23:21:43.209Z,8.07
2023-04-16T23:28:13.301Z,7.98
2023-04-16T23:31:21.598Z,7.97
2023-04-16T23:34:02.560Z,7.97
2023-04-16T23:56:20.493Z,9.09
